sensor_id;sensor_type;location;lat;lon;timestamp;pressure;altitude;pressure_sealevel;temperature;humidity
64841;BME280;51307;52.162;7.560;2023-02-13T00:02:12;103264.63;;;8.37;60.80
64841;BME280;51307;52.162;7.560;2023-02-13T00:04:38;103269.97;;;8.37;61.05
64841;BME280;51307;52.162;7.560;2023-02-13T00:07:04;103269.09;;;8.53;60.49
64841;BME280;51307;52.162;7.560;2023-02-13T00:09:29;103266.69;;;8.32;61.11
64841;BME280;51307;52.162;7.560;2023-02-13T00:11:55;103263.25;;;8.30;61.13
64841;BME280;51307;52.162;7.560;2023-02-13T00:14:20;103266.06;;;8.27;61.26
64841;BME280;51307;52.162;7.560;2023-02-13T00:16:46;103261.75;;;8.24;61.29
64841;BME280;51307;52.162;7.560;2023-02-13T00:19:11;103262.03;;;8.20;61.45
64841;BME280;51307;52.162;7.560;2023-02-13T00:21:37;103255.31;;;8.13;61.65
64841;BME280;51307;52.162;7.560;2023-02-13T00:24:02;103250.16;;;8.25;61.34
64841;BME280;51307;52.162;7.560;2023-02-13T00:26:28;103249.97;;;8.13;61.72
64841;BME280;51307;52.162;7.560;2023-02-13T00:28:55;103249.81;;;8.16;61.58
64841;BME280;51307;52.162;7.560;2023-02-13T00:31:21;103252.38;;;8.17;61.67
64841;BME280;51307;52.162;7.560;2023-02-13T00:33:47;103250.13;;;8.09;61.59
64841;BME280;51307;52.162;7.560;2023-02-13T00:36:18;103246.44;;;8.12;61.71
64841;BME280;51307;52.162;7.560;2023-02-13T00:38:45;103241.28;;;8.09;61.68
64841;BME280;51307;52.162;7.560;2023-02-13T00:41:11;103241.47;;;8.06;61.76
64841;BME280;51307;52.162;7.560;2023-02-13T00:43:37;103241.38;;;8.07;61.74
64841;BME280;51307;52.162;7.560;2023-02-13T00:46:04;103248.44;;;8.08;61.64
64841;BME280;51307;52.162;7.560;2023-02-13T00:48:31;103246.13;;;8.18;61.43
64841;BME280;51307;52.162;7.560;2023-02-13T00:50:58;103248.56;;;8.05;61.72
64841;BME280;51307;52.162;7.560;2023-02-13T00:53:25;103256.44;;;8.08;61.71
64841;BME280;51307;52.162;7.560;2023-02-13T00:55:51;103260.19;;;8.04;61.87
64841;BME280;51307;52.162;7.560;2023-02-13T00:58:18;103255.81;;;8.03;61.93
64841;BME280;51307;52.162;7.560;2023-02-13T01:00:45;103258.41;;;8.05;61.89
64841;BME280;51307;52.162;7.560;2023-02-13T01:03:17;103255.72;;;8.05;61.71
64841;BME280;51307;52.162;7.560;2023-02-13T01:05:43;103257.38;;;8.07;61.70
64841;BME280;51307;52.162;7.560;2023-02-13T01:08:10;103256.88;;;8.17;61.60
64841;BME280;51307;52.162;7.560;2023-02-13T01:10:37;103260.88;;;8.08;61.84
64841;BME280;51307;52.162;7.560;2023-02-13T01:13:04;103265.28;;;8.09;61.84
64841;BME280;51307;52.162;7.560;2023-02-13T01:15:31;103262.09;;;8.02;62.11
64841;BME280;51307;52.162;7.560;2023-02-13T01:17:57;103258.75;;;8.15;61.75
64841;BME280;51307;52.162;7.560;2023-02-13T01:20:23;103257.81;;;8.32;61.46
64841;BME280;51307;52.162;7.560;2023-02-13T01:22:49;103256.44;;;8.08;62.12
64841;BME280;51307;52.162;7.560;2023-02-13T01:25:15;103249.50;;;8.04;62.04
64841;BME280;51307;52.162;7.560;2023-02-13T01:27:40;103248.34;;;8.10;62.00
64841;BME280;51307;52.162;7.560;2023-02-13T01:30:07;103247.63;;;8.06;61.93
64841;BME280;51307;52.162;7.560;2023-02-13T01:32:38;103251.41;;;8.02;62.09
64841;BME280;51307;52.162;7.560;2023-02-13T01:35:05;103248.22;;;7.96;62.32
64841;BME280;51307;52.162;7.560;2023-02-13T01:37:31;103245.72;;;7.93;62.36
64841;BME280;51307;52.162;7.560;2023-02-13T01:39:57;103239.59;;;7.90;62.55
64841;BME280;51307;52.162;7.560;2023-02-13T01:42:32;103240.56;;;8.05;62.11
64841;BME280;51307;52.162;7.560;2023-02-13T01:45:00;103236.53;;;7.98;62.14
64841;BME280;51307;52.162;7.560;2023-02-13T01:47:42;103239.28;;;7.97;62.18
64841;BME280;51307;52.162;7.560;2023-02-13T01:50:23;103237.66;;;7.94;62.43
64841;BME280;51307;52.162;7.560;2023-02-13T01:53:11;103232.31;;;7.94;62.37
64841;BME280;51307;52.162;7.560;2023-02-13T01:56:21;103222.59;;;7.93;62.33
64841;BME280;51307;52.162;7.560;2023-02-13T01:58:51;103220.19;;;7.88;62.49
64841;BME280;51307;52.162;7.560;2023-02-13T02:01:21;103223.69;;;7.89;62.35
64841;BME280;51307;52.162;7.560;2023-02-13T02:03:59;103222.41;;;7.96;62.16
64841;BME280;51307;52.162;7.560;2023-02-13T02:06:44;103224.31;;;7.94;61.99
64841;BME280;51307;52.162;7.560;2023-02-13T02:09:16;103218.69;;;7.83;62.64
64841;BME280;51307;52.162;7.560;2023-02-13T02:14:18;103225.06;;;7.96;62.00
64841;BME280;51307;52.162;7.560;2023-02-13T02:16:44;103224.41;;;7.93;62.24
64841;BME280;51307;52.162;7.560;2023-02-13T02:19:23;103220.78;;;7.78;62.75
64841;BME280;51307;52.162;7.560;2023-02-13T02:32:56;103218.72;;;7.99;62.29
64841;BME280;51307;52.162;7.560;2023-02-13T02:35:45;103218.06;;;7.95;62.52
64841;BME280;51307;52.162;7.560;2023-02-13T02:38:26;103214.84;;;7.88;62.66
64841;BME280;51307;52.162;7.560;2023-02-13T02:43:42;103205.38;;;7.99;62.31
64841;BME280;51307;52.162;7.560;2023-02-13T02:46:23;103205.31;;;8.00;62.40
64841;BME280;51307;52.162;7.560;2023-02-13T02:49:14;103206.06;;;7.86;63.03
64841;BME280;51307;52.162;7.560;2023-02-13T02:52:09;103207.22;;;8.14;62.22
64841;BME280;51307;52.162;7.560;2023-02-13T02:57:30;103198.34;;;7.82;62.79
64841;BME280;51307;52.162;7.560;2023-02-13T03:00:20;103195.22;;;7.89;62.50
64841;BME280;51307;52.162;7.560;2023-02-13T03:03:16;103194.69;;;7.83;62.84
64841;BME280;51307;52.162;7.560;2023-02-13T03:06:11;103194.28;;;7.90;62.56
64841;BME280;51307;52.162;7.560;2023-02-13T03:08:46;103196.09;;;7.90;62.54
64841;BME280;51307;52.162;7.560;2023-02-13T03:11:36;103198.78;;;7.90;62.64
64841;BME280;51307;52.162;7.560;2023-02-13T03:14:25;103197.97;;;7.88;62.56
64841;BME280;51307;52.162;7.560;2023-02-13T03:16:51;103206.91;;;7.87;62.71
64841;BME280;51307;52.162;7.560;2023-02-13T03:28:16;103200.81;;;7.85;62.78
64841;BME280;51307;52.162;7.560;2023-02-13T03:39:43;103208.72;;;7.86;62.89
64841;BME280;51307;52.162;7.560;2023-02-13T03:42:27;103206.06;;;7.86;62.92
64841;BME280;51307;52.162;7.560;2023-02-13T03:44:57;103200.22;;;7.80;62.93
64841;BME280;51307;52.162;7.560;2023-02-13T03:47:44;103208.13;;;7.81;62.97
64841;BME280;51307;52.162;7.560;2023-02-13T03:50:14;103205.97;;;7.88;62.84
64841;BME280;51307;52.162;7.560;2023-02-13T03:55:18;103200.69;;;8.20;61.95
64841;BME280;51307;52.162;7.560;2023-02-13T03:58:11;103200.75;;;7.86;62.87
64841;BME280;51307;52.162;7.560;2023-02-13T04:01:00;103202.56;;;7.86;62.93
64841;BME280;51307;52.162;7.560;2023-02-13T04:03:49;103199.19;;;7.82;63.03
64841;BME280;51307;52.162;7.560;2023-02-13T04:06:26;103192.38;;;7.77;63.19
64841;BME280;51307;52.162;7.560;2023-02-13T04:08:54;103200.38;;;7.77;63.27
64841;BME280;51307;52.162;7.560;2023-02-13T04:11:39;103196.69;;;7.79;63.12
64841;BME280;51307;52.162;7.560;2023-02-13T04:14:39;103209.00;;;7.82;62.96
64841;BME280;51307;52.162;7.560;2023-02-13T04:17:15;103210.63;;;7.84;62.93
64841;BME280;51307;52.162;7.560;2023-02-13T04:19:42;103212.41;;;7.84;62.90
64841;BME280;51307;52.162;7.560;2023-02-13T04:22:11;103210.09;;;7.78;63.00
64841;BME280;51307;52.162;7.560;2023-02-13T04:24:37;103204.44;;;7.84;62.92
64841;BME280;51307;52.162;7.560;2023-02-13T04:27:02;103207.88;;;7.86;62.87
64841;BME280;51307;52.162;7.560;2023-02-13T04:29:28;103210.69;;;7.83;62.83
64841;BME280;51307;52.162;7.560;2023-02-13T04:31:54;103215.09;;;7.84;62.79
64841;BME280;51307;52.162;7.560;2023-02-13T04:34:20;103203.41;;;7.86;62.86
64841;BME280;51307;52.162;7.560;2023-02-13T04:36:45;103214.78;;;7.90;62.91
64841;BME280;51307;52.162;7.560;2023-02-13T04:39:11;103207.97;;;7.84;63.03
64841;BME280;51307;52.162;7.560;2023-02-13T04:41:36;103205.22;;;7.86;63.07
64841;BME280;51307;52.162;7.560;2023-02-13T04:44:02;103205.84;;;7.91;62.91
64841;BME280;51307;52.162;7.560;2023-02-13T04:46:28;103208.56;;;7.89;62.89
64841;BME280;51307;52.162;7.560;2023-02-13T04:48:53;103203.94;;;7.93;62.92
64841;BME280;51307;52.162;7.560;2023-02-13T04:51:19;103201.25;;;7.93;62.98
64841;BME280;51307;52.162;7.560;2023-02-13T04:53:44;103203.50;;;7.85;63.26
64841;BME280;51307;52.162;7.560;2023-02-13T04:56:09;103196.09;;;7.90;63.04
64841;BME280;51307;52.162;7.560;2023-02-13T04:58:35;103198.88;;;7.88;63.16
64841;BME280;51307;52.162;7.560;2023-02-13T05:01:01;103194.44;;;7.71;63.64
64841;BME280;51307;52.162;7.560;2023-02-13T05:03:26;103191.78;;;7.71;63.45
64841;BME280;51307;52.162;7.560;2023-02-13T05:05:52;103192.56;;;7.73;63.41
64841;BME280;51307;52.162;7.560;2023-02-13T05:08:17;103194.16;;;7.76;63.25
64841;BME280;51307;52.162;7.560;2023-02-13T05:10:43;103193.75;;;7.84;63.21
64841;BME280;51307;52.162;7.560;2023-02-13T05:13:08;103194.66;;;7.84;63.23
64841;BME280;51307;52.162;7.560;2023-02-13T05:15:34;103194.13;;;7.78;63.47
64841;BME280;51307;52.162;7.560;2023-02-13T05:17:59;103194.25;;;7.74;63.54
64841;BME280;51307;52.162;7.560;2023-02-13T05:20:25;103197.63;;;7.78;63.31
64841;BME280;51307;52.162;7.560;2023-02-13T05:22:52;103202.25;;;7.74;63.51
64841;BME280;51307;52.162;7.560;2023-02-13T05:25:39;103196.94;;;7.74;63.70
64841;BME280;51307;52.162;7.560;2023-02-13T05:28:06;103195.72;;;7.80;63.31
64841;BME280;51307;52.162;7.560;2023-02-13T05:31:07;103199.63;;;7.90;63.09
64841;BME280;51307;52.162;7.560;2023-02-13T05:33:33;103194.34;;;7.73;63.54
64841;BME280;51307;52.162;7.560;2023-02-13T05:35:58;103194.16;;;7.76;63.42
64841;BME280;51307;52.162;7.560;2023-02-13T05:38:24;103202.13;;;7.78;63.41
64841;BME280;51307;52.162;7.560;2023-02-13T05:40:49;103191.94;;;7.68;63.64
64841;BME280;51307;52.162;7.560;2023-02-13T05:43:15;103202.97;;;7.78;63.35
64841;BME280;51307;52.162;7.560;2023-02-13T05:45:40;103196.94;;;7.74;63.38
64841;BME280;51307;52.162;7.560;2023-02-13T05:48:06;103197.72;;;7.77;63.37
64841;BME280;51307;52.162;7.560;2023-02-13T05:50:31;103194.88;;;7.80;63.22
64841;BME280;51307;52.162;7.560;2023-02-13T05:52:57;103201.41;;;7.74;63.33
64841;BME280;51307;52.162;7.560;2023-02-13T05:55:22;103199.69;;;7.73;63.41
64841;BME280;51307;52.162;7.560;2023-02-13T05:57:48;103196.25;;;7.71;63.57
64841;BME280;51307;52.162;7.560;2023-02-13T06:00:14;103208.03;;;7.83;63.23
64841;BME280;51307;52.162;7.560;2023-02-13T06:02:40;103205.94;;;7.72;63.53
64841;BME280;51307;52.162;7.560;2023-02-13T06:05:05;103202.34;;;7.73;63.52
64841;BME280;51307;52.162;7.560;2023-02-13T06:07:31;103205.94;;;7.72;63.44
64841;BME280;51307;52.162;7.560;2023-02-13T06:09:56;103208.59;;;7.72;63.56
64841;BME280;51307;52.162;7.560;2023-02-13T06:12:24;103203.50;;;7.85;63.30
64841;BME280;51307;52.162;7.560;2023-02-13T06:14:50;103206.03;;;7.70;63.48
64841;BME280;51307;52.162;7.560;2023-02-13T06:17:15;103209.63;;;7.69;63.73
64841;BME280;51307;52.162;7.560;2023-02-13T06:19:41;103202.06;;;7.62;63.83
64841;BME280;51307;52.162;7.560;2023-02-13T06:22:06;103204.19;;;7.88;63.02
64841;BME280;51307;52.162;7.560;2023-02-13T06:24:31;103210.06;;;7.62;63.91
64841;BME280;51307;52.162;7.560;2023-02-13T06:26:57;103213.88;;;7.89;63.20
64841;BME280;51307;52.162;7.560;2023-02-13T06:29:22;103219.91;;;7.93;62.97
64841;BME280;51307;52.162;7.560;2023-02-13T06:31:48;103216.56;;;7.56;64.04
64841;BME280;51307;52.162;7.560;2023-02-13T06:34:13;103222.69;;;7.58;64.15
64841;BME280;51307;52.162;7.560;2023-02-13T06:36:39;103221.97;;;7.88;63.38
64841;BME280;51307;52.162;7.560;2023-02-13T06:39:08;103219.75;;;7.63;63.74
64841;BME280;51307;52.162;7.560;2023-02-13T06:41:35;103228.22;;;7.71;63.62
64841;BME280;51307;52.162;7.560;2023-02-13T06:44:00;103232.53;;;7.73;63.58
64841;BME280;51307;52.162;7.560;2023-02-13T06:46:26;103231.81;;;7.70;63.67
64841;BME280;51307;52.162;7.560;2023-02-13T06:48:51;103226.03;;;7.95;63.06
64841;BME280;51307;52.162;7.560;2023-02-13T06:51:17;103231.47;;;7.76;63.44
64841;BME280;51307;52.162;7.560;2023-02-13T06:53:42;103235.88;;;7.77;63.49
64841;BME280;51307;52.162;7.560;2023-02-13T06:56:08;103237.28;;;7.84;63.06
64841;BME280;51307;52.162;7.560;2023-02-13T06:58:35;103234.81;;;7.64;63.73
64841;BME280;51307;52.162;7.560;2023-02-13T07:01:03;103235.44;;;7.69;63.71
64841;BME280;51307;52.162;7.560;2023-02-13T07:03:28;103235.25;;;7.72;63.36
64841;BME280;51307;52.162;7.560;2023-02-13T07:05:54;103237.53;;;7.80;63.17
64841;BME280;51307;52.162;7.560;2023-02-13T07:08:21;103232.69;;;7.70;63.56
64841;BME280;51307;52.162;7.560;2023-02-13T07:10:47;103236.00;;;7.91;63.16
64841;BME280;51307;52.162;7.560;2023-02-13T07:13:12;103233.03;;;7.80;63.09
64841;BME280;51307;52.162;7.560;2023-02-13T07:15:38;103237.69;;;7.77;63.27
64841;BME280;51307;52.162;7.560;2023-02-13T07:18:05;103241.28;;;7.75;63.35
64841;BME280;51307;52.162;7.560;2023-02-13T07:20:31;103238.25;;;7.66;63.82
64841;BME280;51307;52.162;7.560;2023-02-13T07:23:02;103245.78;;;7.75;63.58
64841;BME280;51307;52.162;7.560;2023-02-13T07:25:29;103247.47;;;7.76;63.31
64841;BME280;51307;52.162;7.560;2023-02-13T07:28:00;103254.75;;;7.90;63.45
64841;BME280;51307;52.162;7.560;2023-02-13T07:30:25;103249.19;;;8.11;62.80
64841;BME280;51307;52.162;7.560;2023-02-13T07:32:51;103249.97;;;8.13;62.54
64841;BME280;51307;52.162;7.560;2023-02-13T07:35:16;103251.63;;;8.15;62.10
64841;BME280;51307;52.162;7.560;2023-02-13T07:37:42;103254.84;;;7.88;63.04
64841;BME280;51307;52.162;7.560;2023-02-13T07:40:08;103257.50;;;7.88;63.35
64841;BME280;51307;52.162;7.560;2023-02-13T07:42:34;103259.28;;;7.88;63.37
64841;BME280;51307;52.162;7.560;2023-02-13T07:45:00;103254.53;;;7.77;63.60
64841;BME280;51307;52.162;7.560;2023-02-13T07:47:25;103265.25;;;7.93;63.10
64841;BME280;51307;52.162;7.560;2023-02-13T07:49:51;103263.66;;;8.22;62.34
64841;BME280;51307;52.162;7.560;2023-02-13T07:52:16;103261.28;;;8.00;63.13
64841;BME280;51307;52.162;7.560;2023-02-13T07:54:42;103262.78;;;8.06;62.47
64841;BME280;51307;52.162;7.560;2023-02-13T07:57:15;103264.50;;;8.07;62.92
64841;BME280;51307;52.162;7.560;2023-02-13T07:59:41;103257.50;;;8.04;62.92
64841;BME280;51307;52.162;7.560;2023-02-13T08:02:10;103268.63;;;7.97;63.16
64841;BME280;51307;52.162;7.560;2023-02-13T08:04:37;103266.31;;;8.06;63.19
64841;BME280;51307;52.162;7.560;2023-02-13T08:07:02;103262.22;;;8.17;63.09
64841;BME280;51307;52.162;7.560;2023-02-13T08:09:28;103259.03;;;8.26;62.80
64841;BME280;51307;52.162;7.560;2023-02-13T08:12:12;103260.59;;;8.30;62.63
64841;BME280;51307;52.162;7.560;2023-02-13T08:14:37;103260.81;;;8.25;62.35
64841;BME280;51307;52.162;7.560;2023-02-13T08:17:03;103263.25;;;8.30;62.32
64841;BME280;51307;52.162;7.560;2023-02-13T08:19:29;103265.97;;;8.13;62.84
64841;BME280;51307;52.162;7.560;2023-02-13T08:21:54;103258.97;;;8.44;62.05
64841;BME280;51307;52.162;7.560;2023-02-13T08:24:20;103262.03;;;8.20;62.75
64841;BME280;51307;52.162;7.560;2023-02-13T08:26:46;103260.59;;;8.30;62.33
64841;BME280;51307;52.162;7.560;2023-02-13T08:29:11;103264.28;;;8.44;62.07
64841;BME280;51307;52.162;7.560;2023-02-13T08:31:37;103256.81;;;8.50;61.86
64841;BME280;51307;52.162;7.560;2023-02-13T08:34:03;103253.34;;;8.32;62.17
64841;BME280;51307;52.162;7.560;2023-02-13T08:36:30;103252.72;;;8.27;62.55
64841;BME280;51307;52.162;7.560;2023-02-13T08:38:55;103250.84;;;8.29;62.43
64841;BME280;51307;52.162;7.560;2023-02-13T08:41:21;103254.97;;;8.35;62.25
64841;BME280;51307;52.162;7.560;2023-02-13T08:43:50;103258.09;;;8.59;61.34
64841;BME280;51307;52.162;7.560;2023-02-13T08:46:16;103265.66;;;8.51;61.51
64841;BME280;51307;52.162;7.560;2023-02-13T08:48:42;103263.09;;;8.65;61.25
64841;BME280;51307;52.162;7.560;2023-02-13T08:51:10;103269.09;;;8.69;61.09
64841;BME280;51307;52.162;7.560;2023-02-13T08:53:37;103272.63;;;8.69;61.02
64841;BME280;51307;52.162;7.560;2023-02-13T08:56:03;103276.25;;;8.68;61.07
64841;BME280;51307;52.162;7.560;2023-02-13T08:58:29;103269.09;;;8.53;61.54
64841;BME280;51307;52.162;7.560;2023-02-13T09:00:55;103279.84;;;8.67;61.09
64841;BME280;51307;52.162;7.560;2023-02-13T09:03:21;103268.25;;;8.52;61.69
64841;BME280;51307;52.162;7.560;2023-02-13T09:05:46;103270.56;;;8.58;61.38
64841;BME280;51307;52.162;7.560;2023-02-13T09:08:12;103274.09;;;8.75;60.81
64841;BME280;51307;52.162;7.560;2023-02-13T09:10:40;103280.66;;;8.85;60.43
64841;BME280;51307;52.162;7.560;2023-02-13T09:13:06;103276.34;;;8.67;61.32
64841;BME280;51307;52.162;7.560;2023-02-13T09:15:32;103277.56;;;8.61;61.13
64841;BME280;51307;52.162;7.560;2023-02-13T09:17:57;103270.09;;;8.82;60.57
64841;BME280;51307;52.162;7.560;2023-02-13T09:20:23;103269.91;;;8.87;60.52
64841;BME280;51307;52.162;7.560;2023-02-13T09:22:49;103275.72;;;8.78;60.31
64841;BME280;51307;52.162;7.560;2023-02-13T09:25:15;103276.94;;;8.88;60.07
64841;BME280;51307;52.162;7.560;2023-02-13T09:27:40;103279.44;;;8.91;59.72
64841;BME280;51307;52.162;7.560;2023-02-13T09:30:08;103269.09;;;8.85;59.64
64841;BME280;51307;52.162;7.560;2023-02-13T09:32:34;103271.84;;;8.83;60.08
64841;BME280;51307;52.162;7.560;2023-02-13T09:35:02;103277.53;;;8.93;59.77
64841;BME280;51307;52.162;7.560;2023-02-13T09:37:28;103269.53;;;8.93;59.41
64841;BME280;51307;52.162;7.560;2023-02-13T09:39:53;103273.72;;;8.97;59.24
64841;BME280;51307;52.162;7.560;2023-02-13T09:42:31;103280.63;;;9.01;59.33
64841;BME280;51307;52.162;7.560;2023-02-13T09:45:04;103274.75;;;9.11;59.04
64841;BME280;51307;52.162;7.560;2023-02-13T09:47:34;103280.72;;;9.00;59.22
64841;BME280;51307;52.162;7.560;2023-02-13T09:52:38;103278.31;;;8.95;58.62
64841;BME280;51307;52.162;7.560;2023-02-13T09:55:28;103283.72;;;9.09;58.51
64841;BME280;51307;52.162;7.560;2023-02-13T10:00:57;103281.41;;;9.03;58.13
64841;BME280;51307;52.162;7.560;2023-02-13T10:03:35;103289.22;;;9.06;58.10
64841;BME280;51307;52.162;7.560;2023-02-13T10:09:00;103295.06;;;9.13;58.01
64841;BME280;51307;52.162;7.560;2023-02-13T10:11:50;103288.88;;;9.13;57.58
64841;BME280;51307;52.162;7.560;2023-02-13T10:17:20;103297.31;;;9.21;56.82
64841;BME280;51307;52.162;7.560;2023-02-13T10:20:15;103288.75;;;9.30;56.69
64841;BME280;51307;52.162;7.560;2023-02-13T10:22:48;103300.41;;;9.13;56.43
64841;BME280;51307;52.162;7.560;2023-02-13T10:25:21;103298.19;;;9.36;56.13
64841;BME280;51307;52.162;7.560;2023-02-13T10:28:01;103297.34;;;9.35;56.32
64841;BME280;51307;52.162;7.560;2023-02-13T10:30:47;103294.28;;;9.27;56.51
64841;BME280;51307;52.162;7.560;2023-02-13T10:33:29;103290.28;;;9.34;56.10
64841;BME280;51307;52.162;7.560;2023-02-13T10:36:20;103286.19;;;9.43;55.89
64841;BME280;51307;52.162;7.560;2023-02-13T10:38:56;103283.59;;;9.41;55.88
64841;BME280;51307;52.162;7.560;2023-02-13T10:42:04;103285.88;;;9.33;55.87
64841;BME280;51307;52.162;7.560;2023-02-13T10:52:48;103281.88;;;9.26;56.56
64841;BME280;51307;52.162;7.560;2023-02-13T11:03:39;103271.63;;;9.49;55.45
64841;BME280;51307;52.162;7.560;2023-02-13T11:06:10;103263.31;;;9.53;54.94
64841;BME280;51307;52.162;7.560;2023-02-13T11:08:40;103270.94;;;9.45;54.48
64841;BME280;51307;52.162;7.560;2023-02-13T11:11:30;103262.72;;;9.48;54.50
64841;BME280;51307;52.162;7.560;2023-02-13T11:14:21;103263.22;;;9.55;54.83
64841;BME280;51307;52.162;7.560;2023-02-13T11:21:54;103258.75;;;9.55;55.28
64841;BME280;51307;52.162;7.560;2023-02-13T11:24:22;103253.84;;;9.48;55.79
64841;BME280;51307;52.162;7.560;2023-02-13T11:26:53;103253.22;;;9.58;54.95
64841;BME280;51307;52.162;7.560;2023-02-13T11:29:24;103236.59;;;9.53;54.79
64841;BME280;51307;52.162;7.560;2023-02-13T11:34:30;103237.66;;;9.65;54.60
64841;BME280;51307;52.162;7.560;2023-02-13T11:39:37;103232.56;;;9.60;54.61
64841;BME280;51307;52.162;7.560;2023-02-13T11:42:13;103232.69;;;9.73;54.05
64841;BME280;51307;52.162;7.560;2023-02-13T11:44:41;103227.31;;;9.59;54.24
64841;BME280;51307;52.162;7.560;2023-02-13T11:47:09;103228.19;;;9.74;54.62
64841;BME280;51307;52.162;7.560;2023-02-13T11:49:37;103230.88;;;9.88;54.49
64841;BME280;51307;52.162;7.560;2023-02-13T11:52:27;103230.41;;;9.96;54.52
64841;BME280;51307;52.162;7.560;2023-02-13T11:54:56;103223.25;;;9.82;54.17
64841;BME280;51307;52.162;7.560;2023-02-13T11:57:30;103222.28;;;9.83;53.89
64841;BME280;51307;52.162;7.560;2023-02-13T11:59:57;103221.69;;;9.92;53.95
64841;BME280;51307;52.162;7.560;2023-02-13T12:04:51;103219.13;;;9.91;54.13
64841;BME280;51307;52.162;7.560;2023-02-13T12:07:24;103213.34;;;10.12;53.81
64841;BME280;51307;52.162;7.560;2023-02-13T12:10:10;103212.25;;;10.01;53.87
64841;BME280;51307;52.162;7.560;2023-02-13T12:15:46;103216.41;;;10.20;53.76
64841;BME280;51307;52.162;7.560;2023-02-13T12:18:23;103210.56;;;10.27;53.48
64841;BME280;51307;52.162;7.560;2023-02-13T12:26:31;103196.72;;;10.21;53.41
64841;BME280;51307;52.162;7.560;2023-02-13T12:31:53;103192.88;;;10.25;53.22
64841;BME280;51307;52.162;7.560;2023-02-13T12:34:48;103182.75;;;10.30;53.40
64841;BME280;51307;52.162;7.560;2023-02-13T12:43:25;103182.09;;;10.26;53.05
64841;BME280;51307;52.162;7.560;2023-02-13T12:54:35;103176.56;;;10.30;52.90
64841;BME280;51307;52.162;7.560;2023-02-13T12:57:32;103169.63;;;10.40;52.92
64841;BME280;51307;52.162;7.560;2023-02-13T13:05:23;103164.69;;;10.48;52.72
64841;BME280;51307;52.162;7.560;2023-02-13T13:19:41;103142.00;;;10.54;52.31
64841;BME280;51307;52.162;7.560;2023-02-13T13:22:32;103142.31;;;10.62;52.41
64841;BME280;51307;52.162;7.560;2023-02-13T13:28:03;103145.28;;;10.57;52.69
64841;BME280;51307;52.162;7.560;2023-02-13T13:30:34;103134.84;;;10.67;52.48
64841;BME280;51307;52.162;7.560;2023-02-13T13:33:16;103139.66;;;10.62;52.14
64841;BME280;51307;52.162;7.560;2023-02-13T13:49:57;103122.84;;;10.73;52.04
64841;BME280;51307;52.162;7.560;2023-02-13T13:52:34;103125.53;;;10.73;51.74
64841;BME280;51307;52.162;7.560;2023-02-13T13:55:04;103119.97;;;10.76;52.00
64841;BME280;51307;52.162;7.560;2023-02-13T14:07:49;103110.91;;;10.91;51.79
64841;BME280;51307;52.162;7.560;2023-02-13T14:18:19;103101.47;;;10.99;51.37
64841;BME280;51307;52.162;7.560;2023-02-13T14:31:34;103103.06;;;11.27;50.75
64841;BME280;51307;52.162;7.560;2023-02-13T14:34:07;103100.16;;;11.30;50.53
64841;BME280;51307;52.162;7.560;2023-02-13T14:36:45;103090.94;;;11.34;50.51
64841;BME280;51307;52.162;7.560;2023-02-13T14:39:27;103090.56;;;11.52;49.96
64841;BME280;51307;52.162;7.560;2023-02-13T14:46:53;103089.09;;;11.85;49.69
64841;BME280;51307;52.162;7.560;2023-02-13T14:49:31;103088.19;;;11.86;49.30
64841;BME280;51307;52.162;7.560;2023-02-13T14:52:02;103078.69;;;11.93;49.27
64841;BME280;51307;52.162;7.560;2023-02-13T14:54:48;103080.13;;;12.34;48.21
64841;BME280;51307;52.162;7.560;2023-02-13T14:59:51;103074.56;;;13.18;46.78
64841;BME280;51307;52.162;7.560;2023-02-13T15:02:36;103070.84;;;13.76;44.64
64841;BME280;51307;52.162;7.560;2023-02-13T15:05:19;103057.66;;;14.80;43.28
64841;BME280;51307;52.162;7.560;2023-02-13T15:07:52;103060.66;;;15.08;42.31
64841;BME280;51307;52.162;7.560;2023-02-13T15:10:34;103065.31;;;15.87;40.63
64841;BME280;51307;52.162;7.560;2023-02-13T15:13:03;103066.50;;;16.43;39.63
64841;BME280;51307;52.162;7.560;2023-02-13T15:15:33;103069.03;;;16.55;39.23
64841;BME280;51307;52.162;7.560;2023-02-13T15:18:03;103066.19;;;16.56;38.44
64841;BME280;51307;52.162;7.560;2023-02-13T15:20:34;103067.06;;;16.57;38.90
64841;BME280;51307;52.162;7.560;2023-02-13T15:23:01;103059.22;;;16.34;38.94
64841;BME280;51307;52.162;7.560;2023-02-13T15:25:39;103062.75;;;16.64;38.83
64841;BME280;51307;52.162;7.560;2023-02-13T15:28:07;103059.28;;;17.57;36.86
64841;BME280;51307;52.162;7.560;2023-02-13T15:30:40;103059.41;;;16.90;37.68
64841;BME280;51307;52.162;7.560;2023-02-13T15:33:19;103059.44;;;17.55;36.59
64841;BME280;51307;52.162;7.560;2023-02-13T15:35:45;103061.69;;;17.32;36.47
64841;BME280;51307;52.162;7.560;2023-02-13T15:38:25;103050.63;;;16.88;37.22
64841;BME280;51307;52.162;7.560;2023-02-13T15:40:55;103058.94;;;16.37;38.30
64841;BME280;51307;52.162;7.560;2023-02-13T15:43:31;103053.81;;;16.34;38.81
64841;BME280;51307;52.162;7.560;2023-02-13T15:46:05;103051.31;;;15.43;40.10
64841;BME280;51307;52.162;7.560;2023-02-13T15:48:33;103055.13;;;14.57;41.93
64841;BME280;51307;52.162;7.560;2023-02-13T15:51:00;103051.88;;;13.89;43.39
64841;BME280;51307;52.162;7.560;2023-02-13T15:53:26;103050.06;;;14.10;43.08
64841;BME280;51307;52.162;7.560;2023-02-13T15:56:01;103051.69;;;13.58;44.29
64841;BME280;51307;52.162;7.560;2023-02-13T15:58:32;103044.16;;;13.18;45.29
64841;BME280;51307;52.162;7.560;2023-02-13T16:01:08;103049.91;;;12.43;46.75
64841;BME280;51307;52.162;7.560;2023-02-13T16:03:35;103041.66;;;12.34;47.11
64841;BME280;51307;52.162;7.560;2023-02-13T16:06:04;103032.34;;;12.15;47.56
64841;BME280;51307;52.162;7.560;2023-02-13T16:14:02;103037.69;;;11.67;48.98
64841;BME280;51307;52.162;7.560;2023-02-13T16:16:41;103036.97;;;11.52;49.26
64841;BME280;51307;52.162;7.560;2023-02-13T16:21:53;103045.16;;;11.37;49.87
64841;BME280;51307;52.162;7.560;2023-02-13T16:24:24;103045.28;;;11.23;50.05